sensor_id;sensor_type;location;lat;lon;timestamp;P1;durP1;ratioP1;P2;durP2;ratioP2
45344;SDS011;31078;48.304;11.896;2023-07-13T00:02:10;10.95;;;5.60;;
45344;SDS011;31078;48.304;11.896;2023-07-13T00:04:38;9.15;;;5.53;;
45344;SDS011;31078;48.304;11.896;2023-07-13T00:07:05;9.73;;;5.90;;
45344;SDS011;31078;48.304;11.896;2023-07-13T00:09:31;9.75;;;5.43;;
45344;SDS011;31078;48.304;11.896;2023-07-13T00:11:58;12.25;;;5.15;;
45344;SDS011;31078;48.304;11.896;2023-07-13T00:14:24;10.15;;;5.18;;
45344;SDS011;31078;48.304;11.896;2023-07-13T00:16:52;10.35;;;5.05;;
45344;SDS011;31078;48.304;11.896;2023-07-13T00:19:19;7.30;;;5.25;;
45344;SDS011;31078;48.304;11.896;2023-07-13T00:21:47;9.48;;;4.53;;
45344;SDS011;31078;48.304;11.896;2023-07-13T00:24:14;7.38;;;4.57;;
45344;SDS011;31078;48.304;11.896;2023-07-13T00:26:47;7.47;;;5.10;;
45344;SDS011;31078;48.304;11.896;2023-07-13T00:29:13;9.75;;;5.38;;
45344;SDS011;31078;48.304;11.896;2023-07-13T00:31:41;7.45;;;4.50;;
45344;SDS011;31078;48.304;11.896;2023-07-13T00:34:08;6.88;;;4.80;;
45344;SDS011;31078;48.304;11.896;2023-07-13T00:36:35;6.50;;;4.70;;
45344;SDS011;31078;48.304;11.896;2023-07-13T00:39:03;9.82;;;4.50;;
45344;SDS011;31078;48.304;11.896;2023-07-13T00:41:30;8.73;;;5.43;;
45344;SDS011;31078;48.304;11.896;2023-07-13T00:43:57;13.88;;;5.03;;
45344;SDS011;31078;48.304;11.896;2023-07-13T00:46:25;9.20;;;4.95;;
45344;SDS011;31078;48.304;11.896;2023-07-13T00:48:54;9.90;;;4.78;;
45344;SDS011;31078;48.304;11.896;2023-07-13T00:51:25;10.18;;;4.13;;
45344;SDS011;31078;48.304;11.896;2023-07-13T00:53:57;7.82;;;4.40;;
45344;SDS011;31078;48.304;11.896;2023-07-13T00:56:27;8.77;;;4.45;;
45344;SDS011;31078;48.304;11.896;2023-07-13T00:58:55;8.52;;;4.53;;
45344;SDS011;31078;48.304;11.896;2023-07-13T01:01:22;8.55;;;4.50;;
45344;SDS011;31078;48.304;11.896;2023-07-13T01:03:49;7.63;;;4.20;;
45344;SDS011;31078;48.304;11.896;2023-07-13T01:06:15;7.50;;;4.53;;
45344;SDS011;31078;48.304;11.896;2023-07-13T01:08:42;7.32;;;3.78;;
45344;SDS011;31078;48.304;11.896;2023-07-13T01:11:09;7.68;;;3.88;;
45344;SDS011;31078;48.304;11.896;2023-07-13T01:13:36;8.65;;;4.30;;
45344;SDS011;31078;48.304;11.896;2023-07-13T01:16:04;7.25;;;4.45;;
45344;SDS011;31078;48.304;11.896;2023-07-13T01:18:37;9.15;;;4.20;;
45344;SDS011;31078;48.304;11.896;2023-07-13T01:21:05;9.82;;;4.30;;
45344;SDS011;31078;48.304;11.896;2023-07-13T01:23:32;8.25;;;4.47;;
45344;SDS011;31078;48.304;11.896;2023-07-13T01:25:59;5.90;;;3.92;;
45344;SDS011;31078;48.304;11.896;2023-07-13T01:28:26;7.88;;;4.38;;
45344;SDS011;31078;48.304;11.896;2023-07-13T01:30:54;7.55;;;4.45;;
45344;SDS011;31078;48.304;11.896;2023-07-13T01:33:22;6.60;;;3.88;;
45344;SDS011;31078;48.304;11.896;2023-07-13T01:35:49;9.05;;;4.55;;
45344;SDS011;31078;48.304;11.896;2023-07-13T01:38:18;6.47;;;3.55;;
45344;SDS011;31078;48.304;11.896;2023-07-13T01:40:46;7.22;;;4.00;;
45344;SDS011;31078;48.304;11.896;2023-07-13T01:43:13;10.27;;;4.18;;
45344;SDS011;31078;48.304;11.896;2023-07-13T01:45:40;6.57;;;3.70;;
45344;SDS011;31078;48.304;11.896;2023-07-13T01:48:08;8.13;;;3.35;;
45344;SDS011;31078;48.304;11.896;2023-07-13T01:50:35;9.77;;;3.58;;
45344;SDS011;31078;48.304;11.896;2023-07-13T01:53:02;9.75;;;3.58;;
45344;SDS011;31078;48.304;11.896;2023-07-13T01:55:31;9.30;;;3.78;;
45344;SDS011;31078;48.304;11.896;2023-07-13T01:57:58;6.93;;;3.80;;
45344;SDS011;31078;48.304;11.896;2023-07-13T02:00:24;11.60;;;3.80;;
45344;SDS011;31078;48.304;11.896;2023-07-13T02:02:51;5.05;;;3.30;;
45344;SDS011;31078;48.304;11.896;2023-07-13T02:05:18;10.55;;;3.80;;
45344;SDS011;31078;48.304;11.896;2023-07-13T02:07:45;7.35;;;3.35;;
45344;SDS011;31078;48.304;11.896;2023-07-13T02:10:12;8.68;;;4.10;;
45344;SDS011;31078;48.304;11.896;2023-07-13T02:12:40;7.72;;;3.63;;
45344;SDS011;31078;48.304;11.896;2023-07-13T02:15:07;8.95;;;4.20;;
45344;SDS011;31078;48.304;11.896;2023-07-13T02:17:34;9.63;;;4.00;;
45344;SDS011;31078;48.304;11.896;2023-07-13T02:20:01;9.45;;;3.97;;
45344;SDS011;31078;48.304;11.896;2023-07-13T02:22:29;11.60;;;4.30;;
45344;SDS011;31078;48.304;11.896;2023-07-13T02:24:56;7.68;;;3.75;;
45344;SDS011;31078;48.304;11.896;2023-07-13T02:27:22;7.57;;;4.30;;
45344;SDS011;31078;48.304;11.896;2023-07-13T02:29:50;7.93;;;4.28;;
45344;SDS011;31078;48.304;11.896;2023-07-13T02:32:17;9.13;;;4.22;;
45344;SDS011;31078;48.304;11.896;2023-07-13T02:34:43;8.07;;;4.47;;
45344;SDS011;31078;48.304;11.896;2023-07-13T02:37:10;10.40;;;4.13;;
45344;SDS011;31078;48.304;11.896;2023-07-13T02:39:37;6.82;;;4.43;;
45344;SDS011;31078;48.304;11.896;2023-07-13T02:42:03;7.32;;;4.10;;
45344;SDS011;31078;48.304;11.896;2023-07-13T02:44:30;7.15;;;3.88;;
45344;SDS011;31078;48.304;11.896;2023-07-13T02:46:58;8.95;;;4.45;;
45344;SDS011;31078;48.304;11.896;2023-07-13T02:49:25;8.07;;;3.65;;
45344;SDS011;31078;48.304;11.896;2023-07-13T02:51:51;6.35;;;3.80;;
45344;SDS011;31078;48.304;11.896;2023-07-13T02:54:17;4.35;;;3.55;;
45344;SDS011;31078;48.304;11.896;2023-07-13T02:56:44;8.73;;;3.97;;
45344;SDS011;31078;48.304;11.896;2023-07-13T02:59:10;5.63;;;3.70;;
45344;SDS011;31078;48.304;11.896;2023-07-13T03:01:37;7.72;;;3.90;;
45344;SDS011;31078;48.304;11.896;2023-07-13T03:04:05;7.00;;;4.22;;
45344;SDS011;31078;48.304;11.896;2023-07-13T03:06:31;9.52;;;4.30;;
45344;SDS011;31078;48.304;11.896;2023-07-13T03:08:58;6.10;;;4.50;;
45344;SDS011;31078;48.304;11.896;2023-07-13T03:11:26;5.75;;;3.85;;
45344;SDS011;31078;48.304;11.896;2023-07-13T03:13:52;8.27;;;4.80;;
45344;SDS011;31078;48.304;11.896;2023-07-13T03:16:19;9.43;;;4.85;;
45344;SDS011;31078;48.304;11.896;2023-07-13T03:18:46;9.05;;;4.80;;
45344;SDS011;31078;48.304;11.896;2023-07-13T03:21:14;7.50;;;4.15;;
45344;SDS011;31078;48.304;11.896;2023-07-13T03:23:41;8.40;;;5.20;;
45344;SDS011;31078;48.304;11.896;2023-07-13T03:26:09;7.50;;;5.22;;
45344;SDS011;31078;48.304;11.896;2023-07-13T03:28:38;8.15;;;5.60;;
45344;SDS011;31078;48.304;11.896;2023-07-13T03:31:05;11.90;;;5.60;;
45344;SDS011;31078;48.304;11.896;2023-07-13T03:33:34;9.13;;;6.07;;
45344;SDS011;31078;48.304;11.896;2023-07-13T03:36:02;11.35;;;6.55;;
45344;SDS011;31078;48.304;11.896;2023-07-13T03:38:30;13.48;;;6.07;;
45344;SDS011;31078;48.304;11.896;2023-07-13T03:40:57;12.43;;;6.68;;
45344;SDS011;31078;48.304;11.896;2023-07-13T03:43:23;11.77;;;7.30;;
45344;SDS011;31078;48.304;11.896;2023-07-13T03:45:49;12.05;;;6.70;;
45344;SDS011;31078;48.304;11.896;2023-07-13T03:48:16;12.73;;;6.90;;
45344;SDS011;31078;48.304;11.896;2023-07-13T03:50:42;15.45;;;7.80;;
45344;SDS011;31078;48.304;11.896;2023-07-13T03:53:09;13.88;;;8.23;;
45344;SDS011;31078;48.304;11.896;2023-07-13T03:55:37;12.65;;;7.78;;
45344;SDS011;31078;48.304;11.896;2023-07-13T04:00:52;12.93;;;7.38;;
45344;SDS011;31078;48.304;11.896;2023-07-13T04:03:19;13.75;;;7.85;;
45344;SDS011;31078;48.304;11.896;2023-07-13T04:05:45;10.55;;;7.25;;
45344;SDS011;31078;48.304;11.896;2023-07-13T04:08:12;11.57;;;7.13;;
45344;SDS011;31078;48.304;11.896;2023-07-13T04:10:40;11.90;;;7.07;;
45344;SDS011;31078;48.304;11.896;2023-07-13T04:13:06;11.55;;;7.18;;
45344;SDS011;31078;48.304;11.896;2023-07-13T04:15:33;11.27;;;7.50;;
45344;SDS011;31078;48.304;11.896;2023-07-13T04:17:59;13.65;;;7.20;;
45344;SDS011;31078;48.304;11.896;2023-07-13T04:20:26;9.15;;;7.15;;
45344;SDS011;31078;48.304;11.896;2023-07-13T04:22:52;11.20;;;6.32;;
45344;SDS011;31078;48.304;11.896;2023-07-13T04:25:19;11.57;;;6.85;;
45344;SDS011;31078;48.304;11.896;2023-07-13T04:27:49;8.43;;;5.85;;
45344;SDS011;31078;48.304;11.896;2023-07-13T04:30:15;11.40;;;7.32;;
45344;SDS011;31078;48.304;11.896;2023-07-13T04:32:42;11.45;;;7.78;;
45344;SDS011;31078;48.304;11.896;2023-07-13T04:35:08;12.85;;;7.18;;
45344;SDS011;31078;48.304;11.896;2023-07-13T04:37:35;12.85;;;8.10;;
45344;SDS011;31078;48.304;11.896;2023-07-13T04:40:01;12.70;;;7.95;;
45344;SDS011;31078;48.304;11.896;2023-07-13T04:42:29;13.50;;;8.23;;
45344;SDS011;31078;48.304;11.896;2023-07-13T04:44:57;14.25;;;7.90;;
45344;SDS011;31078;48.304;11.896;2023-07-13T04:47:23;12.82;;;7.60;;
45344;SDS011;31078;48.304;11.896;2023-07-13T04:49:50;11.30;;;7.68;;
45344;SDS011;31078;48.304;11.896;2023-07-13T04:52:16;12.18;;;7.65;;
45344;SDS011;31078;48.304;11.896;2023-07-13T04:54:43;15.75;;;8.20;;
45344;SDS011;31078;48.304;11.896;2023-07-13T04:57:09;11.23;;;7.32;;
45344;SDS011;31078;48.304;11.896;2023-07-13T04:59:36;11.85;;;7.75;;
45344;SDS011;31078;48.304;11.896;2023-07-13T05:02:04;11.32;;;7.93;;
45344;SDS011;31078;48.304;11.896;2023-07-13T05:04:31;12.05;;;7.85;;
45344;SDS011;31078;48.304;11.896;2023-07-13T05:06:57;11.40;;;7.60;;
45344;SDS011;31078;48.304;11.896;2023-07-13T05:09:25;9.88;;;7.03;;
45344;SDS011;31078;48.304;11.896;2023-07-13T05:11:51;15.23;;;7.35;;
45344;SDS011;31078;48.304;11.896;2023-07-13T05:14:18;12.73;;;7.13;;
45344;SDS011;31078;48.304;11.896;2023-07-13T05:16:44;11.35;;;6.30;;
45344;SDS011;31078;48.304;11.896;2023-07-13T05:19:12;13.20;;;6.50;;
45344;SDS011;31078;48.304;11.896;2023-07-13T05:21:39;9.13;;;5.68;;
45344;SDS011;31078;48.304;11.896;2023-07-13T05:24:06;9.25;;;6.07;;
45344;SDS011;31078;48.304;11.896;2023-07-13T05:26:32;8.77;;;5.80;;
45344;SDS011;31078;48.304;11.896;2023-07-13T05:28:59;7.80;;;5.65;;
45344;SDS011;31078;48.304;11.896;2023-07-13T05:31:25;11.07;;;6.00;;
45344;SDS011;31078;48.304;11.896;2023-07-13T05:33:53;12.00;;;6.38;;
45344;SDS011;31078;48.304;11.896;2023-07-13T05:36:20;8.45;;;5.85;;
45344;SDS011;31078;48.304;11.896;2023-07-13T05:38:47;9.60;;;5.03;;
45344;SDS011;31078;48.304;11.896;2023-07-13T05:41:13;8.25;;;5.60;;
45344;SDS011;31078;48.304;11.896;2023-07-13T05:43:40;8.63;;;4.93;;
45344;SDS011;31078;48.304;11.896;2023-07-13T05:46:06;9.38;;;5.47;;
45344;SDS011;31078;48.304;11.896;2023-07-13T05:48:33;9.68;;;5.88;;
45344;SDS011;31078;48.304;11.896;2023-07-13T05:51:00;10.18;;;5.72;;
45344;SDS011;31078;48.304;11.896;2023-07-13T05:53:28;11.30;;;5.85;;
45344;SDS011;31078;48.304;11.896;2023-07-13T05:55:55;10.50;;;5.50;;
45344;SDS011;31078;48.304;11.896;2023-07-13T05:58:22;10.85;;;5.90;;
45344;SDS011;31078;48.304;11.896;2023-07-13T06:00:48;8.60;;;5.90;;
45344;SDS011;31078;48.304;11.896;2023-07-13T06:03:15;7.80;;;5.40;;
45344;SDS011;31078;48.304;11.896;2023-07-13T06:05:41;11.38;;;5.63;;
45344;SDS011;31078;48.304;11.896;2023-07-13T06:08:08;7.88;;;5.47;;
45344;SDS011;31078;48.304;11.896;2023-07-13T06:10:36;7.10;;;5.70;;
45344;SDS011;31078;48.304;11.896;2023-07-13T06:13:04;9.65;;;6.20;;
45344;SDS011;31078;48.304;11.896;2023-07-13T06:15:30;9.25;;;5.60;;
45344;SDS011;31078;48.304;11.896;2023-07-13T06:17:57;8.32;;;6.10;;
45344;SDS011;31078;48.304;11.896;2023-07-13T06:20:23;6.88;;;5.00;;
45344;SDS011;31078;48.304;11.896;2023-07-13T06:22:49;9.65;;;6.00;;
45344;SDS011;31078;48.304;11.896;2023-07-13T06:25:16;10.23;;;6.03;;
45344;SDS011;31078;48.304;11.896;2023-07-13T06:27:44;9.70;;;6.00;;
45344;SDS011;31078;48.304;11.896;2023-07-13T06:30:11;9.68;;;6.20;;
45344;SDS011;31078;48.304;11.896;2023-07-13T06:32:38;9.75;;;5.90;;
45344;SDS011;31078;48.304;11.896;2023-07-13T06:35:05;8.70;;;5.43;;
45344;SDS011;31078;48.304;11.896;2023-07-13T06:37:32;10.10;;;5.93;;
45344;SDS011;31078;48.304;11.896;2023-07-13T06:39:58;11.90;;;5.88;;
45344;SDS011;31078;48.304;11.896;2023-07-13T06:42:25;12.63;;;6.10;;
45344;SDS011;31078;48.304;11.896;2023-07-13T06:44:53;13.18;;;6.95;;
45344;SDS011;31078;48.304;11.896;2023-07-13T06:47:19;9.30;;;5.60;;
45344;SDS011;31078;48.304;11.896;2023-07-13T06:49:45;10.43;;;5.72;;
45344;SDS011;31078;48.304;11.896;2023-07-13T06:52:12;8.93;;;4.90;;
45344;SDS011;31078;48.304;11.896;2023-07-13T06:54:39;13.05;;;5.40;;
45344;SDS011;31078;48.304;11.896;2023-07-13T06:57:05;11.27;;;5.13;;
45344;SDS011;31078;48.304;11.896;2023-07-13T06:59:32;6.25;;;4.65;;
45344;SDS011;31078;48.304;11.896;2023-07-13T07:02:00;12.82;;;4.68;;
45344;SDS011;31078;48.304;11.896;2023-07-13T07:04:26;8.80;;;3.58;;
45344;SDS011;31078;48.304;11.896;2023-07-13T07:06:53;5.57;;;3.50;;
45344;SDS011;31078;48.304;11.896;2023-07-13T07:09:20;6.10;;;3.45;;
45344;SDS011;31078;48.304;11.896;2023-07-13T07:11:46;8.90;;;4.20;;
45344;SDS011;31078;48.304;11.896;2023-07-13T07:14:13;5.45;;;3.55;;
45344;SDS011;31078;48.304;11.896;2023-07-13T07:16:39;6.68;;;3.40;;
45344;SDS011;31078;48.304;11.896;2023-07-13T07:19:07;7.57;;;3.60;;
45344;SDS011;31078;48.304;11.896;2023-07-13T07:21:33;6.30;;;3.15;;
45344;SDS011;31078;48.304;11.896;2023-07-13T07:24:00;8.43;;;3.63;;
45344;SDS011;31078;48.304;11.896;2023-07-13T07:26:28;7.87;;;2.97;;
45344;SDS011;31078;48.304;11.896;2023-07-13T07:28:54;7.45;;;3.05;;
45344;SDS011;31078;48.304;11.896;2023-07-13T07:31:21;4.43;;;3.03;;
45344;SDS011;31078;48.304;11.896;2023-07-13T07:33:47;10.63;;;2.58;;
45344;SDS011;31078;48.304;11.896;2023-07-13T07:36:16;6.22;;;2.88;;
45344;SDS011;31078;48.304;11.896;2023-07-13T07:38:43;6.63;;;3.00;;
45344;SDS011;31078;48.304;11.896;2023-07-13T07:41:09;9.82;;;3.00;;
45344;SDS011;31078;48.304;11.896;2023-07-13T07:43:36;6.28;;;3.25;;
45344;SDS011;31078;48.304;11.896;2023-07-13T07:46:03;4.90;;;2.85;;
45344;SDS011;31078;48.304;11.896;2023-07-13T07:48:30;6.57;;;2.53;;
45344;SDS011;31078;48.304;11.896;2023-07-13T07:50:58;4.53;;;2.25;;
45344;SDS011;31078;48.304;11.896;2023-07-13T07:53:26;8.00;;;2.42;;
45344;SDS011;31078;48.304;11.896;2023-07-13T07:55:52;4.97;;;2.75;;
45344;SDS011;31078;48.304;11.896;2023-07-13T07:58:19;8.40;;;2.78;;
45344;SDS011;31078;48.304;11.896;2023-07-13T08:00:45;5.78;;;2.50;;
45344;SDS011;31078;48.304;11.896;2023-07-13T08:03:12;7.18;;;2.58;;
45344;SDS011;31078;48.304;11.896;2023-07-13T08:05:38;7.38;;;2.58;;
45344;SDS011;31078;48.304;11.896;2023-07-13T08:08:05;5.10;;;2.60;;
45344;SDS011;31078;48.304;11.896;2023-07-13T08:10:34;5.28;;;2.70;;
45344;SDS011;31078;48.304;11.896;2023-07-13T08:13:01;6.82;;;2.42;;
45344;SDS011;31078;48.304;11.896;2023-07-13T08:15:28;4.82;;;2.50;;
45344;SDS011;31078;48.304;11.896;2023-07-13T08:17:54;7.13;;;2.60;;
45344;SDS011;31078;48.304;11.896;2023-07-13T08:20:21;7.40;;;2.28;;
45344;SDS011;31078;48.304;11.896;2023-07-13T08:22:47;7.55;;;2.30;;
45344;SDS011;31078;48.304;11.896;2023-07-13T08:25:13;4.55;;;2.30;;
45344;SDS011;31078;48.304;11.896;2023-07-13T08:27:41;7.10;;;2.60;;
45344;SDS011;31078;48.304;11.896;2023-07-13T08:30:08;6.97;;;2.08;;
45344;SDS011;31078;48.304;11.896;2023-07-13T08:32:35;6.22;;;2.50;;
45344;SDS011;31078;48.304;11.896;2023-07-13T08:35:02;4.40;;;2.15;;
45344;SDS011;31078;48.304;11.896;2023-07-13T08:37:29;7.93;;;2.42;;
45344;SDS011;31078;48.304;11.896;2023-07-13T08:39:55;4.55;;;2.45;;
45344;SDS011;31078;48.304;11.896;2023-07-13T08:42:28;6.43;;;2.78;;
45344;SDS011;31078;48.304;11.896;2023-07-13T08:45:05;10.32;;;2.88;;
45344;SDS011;31078;48.304;11.896;2023-07-13T08:47:39;7.20;;;2.65;;
45344;SDS011;31078;48.304;11.896;2023-07-13T08:50:11;7.45;;;2.40;;
45344;SDS011;31078;48.304;11.896;2023-07-13T08:52:40;4.72;;;2.13;;
45344;SDS011;31078;48.304;11.896;2023-07-13T08:55:13;9.90;;;2.90;;
45344;SDS011;31078;48.304;11.896;2023-07-13T08:57:43;8.32;;;2.45;;
45344;SDS011;31078;48.304;11.896;2023-07-13T09:00:17;4.13;;;2.00;;
45344;SDS011;31078;48.304;11.896;2023-07-13T09:02:45;9.40;;;2.42;;
45344;SDS011;31078;48.304;11.896;2023-07-13T09:05:17;9.52;;;2.40;;
45344;SDS011;31078;48.304;11.896;2023-07-13T09:07:53;9.07;;;2.50;;
45344;SDS011;31078;48.304;11.896;2023-07-13T09:10:30;6.90;;;2.55;;
45344;SDS011;31078;48.304;11.896;2023-07-13T09:13:06;5.82;;;1.88;;
45344;SDS011;31078;48.304;11.896;2023-07-13T09:15:46;5.40;;;1.92;;
45344;SDS011;31078;48.304;11.896;2023-07-13T09:18:16;8.48;;;1.80;;
45344;SDS011;31078;48.304;11.896;2023-07-13T09:20:48;4.32;;;1.58;;
45344;SDS011;31078;48.304;11.896;2023-07-13T09:23:19;3.40;;;1.35;;
45344;SDS011;31078;48.304;11.896;2023-07-13T09:25:49;3.05;;;1.10;;
45344;SDS011;31078;48.304;11.896;2023-07-13T09:28:22;2.78;;;1.35;;
45344;SDS011;31078;48.304;11.896;2023-07-13T09:30:54;7.47;;;1.60;;
45344;SDS011;31078;48.304;11.896;2023-07-13T09:33:27;3.08;;;1.48;;
45344;SDS011;31078;48.304;11.896;2023-07-13T09:35:55;5.45;;;1.45;;
45344;SDS011;31078;48.304;11.896;2023-07-13T09:38:23;4.18;;;1.50;;
45344;SDS011;31078;48.304;11.896;2023-07-13T09:41:03;5.00;;;1.58;;
45344;SDS011;31078;48.304;11.896;2023-07-13T09:46:38;4.03;;;1.52;;
45344;SDS011;31078;48.304;11.896;2023-07-13T09:49:07;3.97;;;1.35;;
45344;SDS011;31078;48.304;11.896;2023-07-13T09:51:36;4.53;;;1.40;;
45344;SDS011;31078;48.304;11.896;2023-07-13T09:54:02;3.03;;;1.40;;
45344;SDS011;31078;48.304;11.896;2023-07-13T09:56:29;5.57;;;1.70;;
45344;SDS011;31078;48.304;11.896;2023-07-13T09:58:56;3.25;;;1.35;;
45344;SDS011;31078;48.304;11.896;2023-07-13T10:01:33;3.22;;;1.60;;
45344;SDS011;31078;48.304;11.896;2023-07-13T10:04:03;3.35;;;1.45;;
45344;SDS011;31078;48.304;11.896;2023-07-13T10:06:38;4.13;;;1.45;;
45344;SDS011;31078;48.304;11.896;2023-07-13T10:09:06;3.08;;;1.80;;
45344;SDS011;31078;48.304;11.896;2023-07-13T10:11:34;5.68;;;1.65;;
45344;SDS011;31078;48.304;11.896;2023-07-13T10:14:02;3.75;;;1.40;;
45344;SDS011;31078;48.304;11.896;2023-07-13T10:16:35;3.78;;;1.80;;
45344;SDS011;31078;48.304;11.896;2023-07-13T10:19:05;3.47;;;1.73;;
45344;SDS011;31078;48.304;11.896;2023-07-13T10:21:38;3.92;;;1.60;;
45344;SDS011;31078;48.304;11.896;2023-07-13T10:24:10;6.00;;;1.70;;
45344;SDS011;31078;48.304;11.896;2023-07-13T10:29:12;3.58;;;1.65;;
45344;SDS011;31078;48.304;11.896;2023-07-13T10:31:44;4.15;;;1.50;;
45344;SDS011;31078;48.304;11.896;2023-07-13T10:34:12;7.28;;;1.90;;
45344;SDS011;31078;48.304;11.896;2023-07-13T10:36:40;4.63;;;1.80;;
45344;SDS011;31078;48.304;11.896;2023-07-13T10:39:13;4.07;;;2.10;;
45344;SDS011;31078;48.304;11.896;2023-07-13T10:41:42;7.07;;;1.50;;
45344;SDS011;31078;48.304;11.896;2023-07-13T10:44:16;6.07;;;1.90;;
45344;SDS011;31078;48.304;11.896;2023-07-13T10:46:50;4.60;;;1.83;;
45344;SDS011;31078;48.304;11.896;2023-07-13T10:49:20;5.85;;;1.73;;
45344;SDS011;31078;48.304;11.896;2023-07-13T10:51:47;5.18;;;1.90;;
45344;SDS011;31078;48.304;11.896;2023-07-13T10:54:16;8.07;;;3.05;;
45344;SDS011;31078;48.304;11.896;2023-07-13T10:56:50;3.65;;;1.40;;
45344;SDS011;31078;48.304;11.896;2023-07-13T10:59:33;5.00;;;2.33;;
45344;SDS011;31078;48.304;11.896;2023-07-13T11:02:08;4.03;;;1.50;;
45344;SDS011;31078;48.304;11.896;2023-07-13T11:04:42;6.22;;;1.98;;
45344;SDS011;31078;48.304;11.896;2023-07-13T11:07:16;4.43;;;1.60;;
45344;SDS011;31078;48.304;11.896;2023-07-13T11:09:49;7.10;;;2.00;;
45344;SDS011;31078;48.304;11.896;2023-07-13T11:15:29;8.32;;;2.10;;
45344;SDS011;31078;48.304;11.896;2023-07-13T11:18:18;6.22;;;1.90;;
45344;SDS011;31078;48.304;11.896;2023-07-13T11:20:48;6.65;;;2.05;;
45344;SDS011;31078;48.304;11.896;2023-07-13T11:29:07;6.72;;;1.58;;
45344;SDS011;31078;48.304;11.896;2023-07-13T11:31:36;3.45;;;1.60;;
45344;SDS011;31078;48.304;11.896;2023-07-13T11:34:06;4.65;;;1.80;;
45344;SDS011;31078;48.304;11.896;2023-07-13T11:36:43;8.05;;;1.60;;
45344;SDS011;31078;48.304;11.896;2023-07-13T11:39:13;3.70;;;1.58;;
45344;SDS011;31078;48.304;11.896;2023-07-13T11:41:48;5.07;;;1.95;;
45344;SDS011;31078;48.304;11.896;2023-07-13T11:44:18;4.82;;;1.58;;
45344;SDS011;31078;48.304;11.896;2023-07-13T11:46:47;5.18;;;1.90;;
45344;SDS011;31078;48.304;11.896;2023-07-13T11:49:16;4.30;;;1.77;;
45344;SDS011;31078;48.304;11.896;2023-07-13T11:51:45;4.32;;;1.70;;
45344;SDS011;31078;48.304;11.896;2023-07-13T11:54:17;6.45;;;1.65;;
45344;SDS011;31078;48.304;11.896;2023-07-13T11:56:49;3.95;;;1.73;;
45344;SDS011;31078;48.304;11.896;2023-07-13T11:59:16;5.38;;;1.60;;
45344;SDS011;31078;48.304;11.896;2023-07-13T12:01:44;3.92;;;2.00;;
45344;SDS011;31078;48.304;11.896;2023-07-13T12:04:20;5.13;;;1.80;;
45344;SDS011;31078;48.304;11.896;2023-07-13T12:06:55;3.67;;;1.77;;
45344;SDS011;31078;48.304;11.896;2023-07-13T12:09:25;5.88;;;1.70;;
45344;SDS011;31078;48.304;11.896;2023-07-13T12:11:54;5.78;;;1.75;;
45344;SDS011;31078;48.304;11.896;2023-07-13T12:14:22;4.70;;;1.73;;
45344;SDS011;31078;48.304;11.896;2023-07-13T12:16:51;3.47;;;1.73;;
45344;SDS011;31078;48.304;11.896;2023-07-13T12:19:20;5.32;;;2.20;;
45344;SDS011;31078;48.304;11.896;2023-07-13T12:21:48;4.75;;;1.80;;
45344;SDS011;31078;48.304;11.896;2023-07-13T12:24:18;6.80;;;2.10;;
45344;SDS011;31078;48.304;11.896;2023-07-13T12:26:50;4.65;;;1.75;;
45344;SDS011;31078;48.304;11.896;2023-07-13T12:29:18;5.03;;;1.80;;
45344;SDS011;31078;48.304;11.896;2023-07-13T12:31:45;3.40;;;1.80;;
45344;SDS011;31078;48.304;11.896;2023-07-13T12:34:13;3.42;;;1.70;;
45344;SDS011;31078;48.304;11.896;2023-07-13T12:36:45;3.58;;;1.58;;
45344;SDS011;31078;48.304;11.896;2023-07-13T12:39:14;5.47;;;1.73;;
45344;SDS011;31078;48.304;11.896;2023-07-13T12:41:44;5.40;;;1.65;;
45344;SDS011;31078;48.304;11.896;2023-07-13T12:44:12;4.63;;;1.90;;
45344;SDS011;31078;48.304;11.896;2023-07-13T12:46:50;3.85;;;1.48;;
45344;SDS011;31078;48.304;11.896;2023-07-13T12:49:21;3.22;;;1.60;;
45344;SDS011;31078;48.304;11.896;2023-07-13T12:51:50;4.30;;;1.73;;
45344;SDS011;31078;48.304;11.896;2023-07-13T12:54:21;4.15;;;1.70;;
45344;SDS011;31078;48.304;11.896;2023-07-13T12:56:50;4.03;;;1.77;;
45344;SDS011;31078;48.304;11.896;2023-07-13T12:59:19;7.70;;;1.80;;
45344;SDS011;31078;48.304;11.896;2023-07-13T13:01:47;8.57;;;2.05;;
45344;SDS011;31078;48.304;11.896;2023-07-13T13:04:15;4.18;;;1.67;;
45344;SDS011;31078;48.304;11.896;2023-07-13T13:06:46;7.90;;;1.80;;
45344;SDS011;31078;48.304;11.896;2023-07-13T13:09:13;4.57;;;1.77;;
45344;SDS011;31078;48.304;11.896;2023-07-13T13:11:41;3.80;;;1.50;;
45344;SDS011;31078;48.304;11.896;2023-07-13T13:14:09;2.42;;;1.60;;
45344;SDS011;31078;48.304;11.896;2023-07-13T13:16:37;2.78;;;1.40;;
45344;SDS011;31078;48.304;11.896;2023-07-13T13:19:12;5.65;;;1.85;;
45344;SDS011;31078;48.304;11.896;2023-07-13T13:21:42;5.00;;;1.63;;
45344;SDS011;31078;48.304;11.896;2023-07-13T13:24:13;4.30;;;1.92;;
45344;SDS011;31078;48.304;11.896;2023-07-13T13:26:41;3.27;;;1.40;;
45344;SDS011;31078;48.304;11.896;2023-07-13T13:29:13;3.28;;;1.75;;
45344;SDS011;31078;48.304;11.896;2023-07-13T13:31:41;2.58;;;1.40;;
45344;SDS011;31078;48.304;11.896;2023-07-13T13:34:09;4.03;;;1.63;;
45344;SDS011;31078;48.304;11.896;2023-07-13T13:36:36;5.88;;;1.80;;
45344;SDS011;31078;48.304;11.896;2023-07-13T13:39:05;9.75;;;1.98;;
45344;SDS011;31078;48.304;11.896;2023-07-13T13:41:42;2.78;;;1.60;;
45344;SDS011;31078;48.304;11.896;2023-07-13T13:44:08;5.55;;;1.65;;
45344;SDS011;31078;48.304;11.896;2023-07-13T13:46:37;3.60;;;1.38;;
45344;SDS011;31078;48.304;11.896;2023-07-13T13:49:03;6.68;;;1.60;;
45344;SDS011;31078;48.304;11.896;2023-07-13T13:51:31;3.72;;;1.35;;
45344;SDS011;31078;48.304;11.896;2023-07-13T13:53:58;5.80;;;1.40;;
45344;SDS011;31078;48.304;11.896;2023-07-13T13:56:26;4.55;;;1.63;;
45344;SDS011;31078;48.304;11.896;2023-07-13T13:58:53;4.15;;;1.98;;
45344;SDS011;31078;48.304;11.896;2023-07-13T14:01:20;4.90;;;1.80;;
45344;SDS011;31078;48.304;11.896;2023-07-13T14:03:50;4.93;;;1.55;;
45344;SDS011;31078;48.304;11.896;2023-07-13T14:06:17;2.20;;;1.40;;
45344;SDS011;31078;48.304;11.896;2023-07-13T14:08:44;3.97;;;1.52;;
45344;SDS011;31078;48.304;11.896;2023-07-13T14:11:13;2.90;;;1.55;;
45344;SDS011;31078;48.304;11.896;2023-07-13T14:13:42;6.18;;;1.80;;
45344;SDS011;31078;48.304;11.896;2023-07-13T14:16:12;4.28;;;1.50;;
45344;SDS011;31078;48.304;11.896;2023-07-13T14:18:43;3.17;;;1.38;;
45344;SDS011;31078;48.304;11.896;2023-07-13T14:21:12;5.95;;;1.83;;
45344;SDS011;31078;48.304;11.896;2023-07-13T14:23:39;2.67;;;1.40;;
45344;SDS011;31078;48.304;11.896;2023-07-13T14:26:08;3.17;;;1.33;;
45344;SDS011;31078;48.304;11.896;2023-07-13T14:28:37;2.85;;;1.45;;
45344;SDS011;31078;48.304;11.896;2023-07-13T14:31:07;3.90;;;1.40;;
45344;SDS011;31078;48.304;11.896;2023-07-13T14:33:33;4.43;;;1.70;;
45344;SDS011;31078;48.304;11.896;2023-07-13T14:36:00;2.60;;;1.40;;
45344;SDS011;31078;48.304;11.896;2023-07-13T14:38:28;5.00;;;1.45;;
45344;SDS011;31078;48.304;11.896;2023-07-13T14:40:54;4.55;;;1.70;;
45344;SDS011;31078;48.304;11.896;2023-07-13T14:43:21;3.72;;;1.73;;
45344;SDS011;31078;48.304;11.896;2023-07-13T14:45:49;3.33;;;1.73;;
45344;SDS011;31078;48.304;11.896;2023-07-13T14:48:17;6.50;;;1.40;;
45344;SDS011;31078;48.304;11.896;2023-07-13T14:50:46;4.82;;;1.60;;
45344;SDS011;31078;48.304;11.896;2023-07-13T14:53:13;4.88;;;1.80;;
45344;SDS011;31078;48.304;11.896;2023-07-13T14:55:41;3.83;;;1.60;;